Time;durP1;ratioP1;P1;durP2;ratioP2;P2;SDS_P1;SDS_P2;PMS_P1;PMS_P2;Temp;Humidity;BMP_temperature;BMP_pressure;BME280_temperature;BME280_humidity;BME280_pressure;Samples;Min_cycle;Max_cycle;Signal;HPM_P1;HPM_P2
2023/11/24 00:02:21;;;;;;;2.13;0.97;;;5.60;99.90;;;;;;4954940;29;20235;-84
2023/11/24 00:04:49;;;;;;;2.17;1.07;;;5.60;99.90;;;;;;4938973;29;20625;-82
2023/11/24 00:07:17;;;;;;;5.67;1.23;;;5.60;99.90;;;;;;4955906;29;20288;-81
2023/11/24 00:09:44;;;;;;;4.77;1.13;;;5.60;99.90;;;;;;4956380;29;20295;-81
2023/11/24 00:12:12;;;;;;;3.80;1.10;;;5.60;99.90;;;;;;4955707;29;20214;-82
2023/11/24 00:14:39;;;;;;;4.73;1.30;;;5.60;99.90;;;;;;4955887;29;20197;-81
2023/11/24 00:17:06;;;;;;;5.47;1.00;;;5.60;99.90;;;;;;4955803;29;20212;-81
2023/11/24 00:19:33;;;;;;;5.27;1.10;;;5.70;99.90;;;;;;4955563;29;20282;-79
2023/11/24 00:22:01;;;;;;;6.63;1.20;;;5.70;99.90;;;;;;4955863;29;20287;-80
2023/11/24 00:24:29;;;;;;;4.70;1.00;;;5.70;99.90;;;;;;4956017;29;20194;-79
2023/11/24 00:26:59;;;;;;;4.17;1.03;;;5.80;99.90;;;;;;4955794;29;20586;-79
2023/11/24 00:29:27;;;;;;;3.80;1.10;;;5.80;99.90;;;;;;4922202;28;20288;-79
2023/11/24 00:31:56;;;;;;;5.00;0.93;;;5.80;99.90;;;;;;4955114;29;20602;-81
2023/11/24 00:34:23;;;;;;;4.33;1.17;;;5.80;99.90;;;;;;4938384;29;20198;-80
2023/11/24 00:36:51;;;;;;;2.97;1.20;;;5.90;99.90;;;;;;4938176;29;20299;-81
2023/11/24 00:39:19;;;;;;;5.93;1.43;;;5.80;99.90;;;;;;4955229;29;20222;-81
2023/11/24 00:41:46;;;;;;;6.63;1.33;;;5.90;99.90;;;;;;4955201;29;20295;-80
2023/11/24 00:44:13;;;;;;;5.87;1.30;;;5.90;99.90;;;;;;4937968;29;20205;-80
2023/11/24 00:46:41;;;;;;;3.67;1.13;;;5.90;99.90;;;;;;4955450;29;20302;-79
2023/11/24 00:49:08;;;;;;;4.80;1.40;;;5.90;99.90;;;;;;4955649;29;20202;-81
2023/11/24 00:51:36;;;;;;;3.67;1.10;;;5.90;99.90;;;;;;4937989;29;20236;-80
2023/11/24 00:54:03;;;;;;;3.90;1.03;;;5.90;99.90;;;;;;4955046;29;20220;-80
2023/11/24 00:56:30;;;;;;;3.77;1.37;;;5.90;99.90;;;;;;4955150;29;20366;-80
2023/11/24 00:58:57;;;;;;;6.53;1.47;;;5.90;99.90;;;;;;4955031;29;20263;-80
2023/11/24 01:01:25;;;;;;;4.10;1.27;;;5.90;99.90;;;;;;4955131;29;20240;-80
2023/11/24 01:03:52;;;;;;;4.77;1.30;;;5.80;99.90;;;;;;4955281;29;20202;-80
2023/11/24 01:06:19;;;;;;;7.77;1.60;;;5.80;99.90;;;;;;4954980;29;20593;-80
2023/11/24 01:08:47;;;;;;;5.50;1.40;;;5.80;99.90;;;;;;4954740;29;20761;-80
2023/11/24 01:11:14;;;;;;;3.13;1.40;;;5.80;99.90;;;;;;4953624;29;20230;-80
2023/11/24 01:13:41;;;;;;;4.10;1.43;;;5.70;99.90;;;;;;4953556;29;20194;-81
2023/11/24 01:16:08;;;;;;;4.13;1.53;;;5.70;99.90;;;;;;4954908;29;20202;-81
2023/11/24 01:18:36;;;;;;;6.83;1.60;;;5.70;99.90;;;;;;4937859;29;20300;-81
2023/11/24 01:21:07;;;;;;;7.03;1.60;;;5.70;99.90;;;;;;4937242;29;20215;-81
2023/11/24 01:23:35;;;;;;;5.17;1.40;;;5.60;99.90;;;;;;4953399;29;20273;-80
2023/11/24 01:26:03;;;;;;;8.53;1.77;;;5.60;99.90;;;;;;4953108;29;20329;-80
2023/11/24 01:28:30;;;;;;;4.57;1.50;;;5.60;99.90;;;;;;4954659;29;20200;-81
2023/11/24 01:30:57;;;;;;;7.30;1.60;;;5.50;99.90;;;;;;4954684;29;20206;-80
2023/11/24 01:33:25;;;;;;;6.20;1.70;;;5.50;99.90;;;;;;4954651;29;20218;-80
2023/11/24 01:35:55;;;;;;;6.60;1.70;;;5.50;99.90;;;;;;4954446;29;20196;-80
2023/11/24 01:38:23;;;;;;;7.70;1.60;;;5.50;99.90;;;;;;4954534;29;20306;-80
2023/11/24 01:40:51;;;;;;;8.23;1.73;;;5.50;99.90;;;;;;4954112;28;20301;-80
2023/11/24 01:43:18;;;;;;;2.97;1.43;;;5.50;99.90;;;;;;4953696;29;20209;-80
2023/11/24 01:45:45;;;;;;;5.13;1.40;;;5.60;99.90;;;;;;4954345;29;20199;-80
2023/11/24 01:48:15;;;;;;;6.40;2.10;;;5.60;99.90;;;;;;4953165;29;20202;-80
2023/11/24 01:50:43;;;;;;;6.80;1.40;;;5.60;99.90;;;;;;4954099;29;20671;-81
2023/11/24 01:53:10;;;;;;;3.60;1.60;;;5.60;99.90;;;;;;4954522;29;20198;-80
2023/11/24 01:55:37;;;;;;;6.37;1.43;;;5.60;99.90;;;;;;4954101;29;20215;-80
2023/11/24 01:58:06;;;;;;;7.07;1.80;;;5.60;99.90;;;;;;4953134;29;20280;-81
2023/11/24 02:00:34;;;;;;;7.63;2.07;;;5.60;99.90;;;;;;4954714;29;20226;-80
2023/11/24 02:03:01;;;;;;;4.33;1.43;;;5.50;99.90;;;;;;4937184;29;20242;-81
2023/11/24 02:05:29;;;;;;;4.60;1.50;;;5.40;99.90;;;;;;4952951;29;20206;-80
2023/11/24 02:07:57;;;;;;;5.43;1.70;;;4.90;99.90;;;;;;4954490;29;20768;-80
2023/11/24 02:10:25;;;;;;;4.13;1.50;;;4.90;99.90;;;;;;4955859;29;20690;-81
2023/11/24 02:12:52;;;;;;;5.53;1.83;;;4.90;99.90;;;;;;4954664;29;20198;-81
2023/11/24 02:15:20;;;;;;;7.87;2.13;;;4.80;99.90;;;;;;4959707;29;20185;-81
2023/11/24 02:17:47;;;;;;;6.83;2.10;;;4.80;99.90;;;;;;4954009;29;20228;-80
2023/11/24 02:20:15;;;;;;;4.10;1.80;;;4.80;99.90;;;;;;4936796;29;20202;-80
2023/11/24 02:22:43;;;;;;;5.33;1.90;;;4.70;99.90;;;;;;4921217;29;20569;-81
2023/11/24 02:25:11;;;;;;;2.33;1.53;;;4.70;99.90;;;;;;4936542;29;20256;-81
2023/11/24 02:27:38;;;;;;;3.93;1.63;;;4.60;99.90;;;;;;4952883;29;20230;-81
2023/11/24 02:30:06;;;;;;;3.97;1.30;;;4.50;99.90;;;;;;4953734;29;20206;-81
2023/11/24 02:32:34;;;;;;;3.27;1.70;;;4.40;99.90;;;;;;4954260;29;20200;-82
2023/11/24 02:35:02;;;;;;;3.50;1.40;;;4.30;99.90;;;;;;4953042;29;20590;-81
2023/11/24 02:37:29;;;;;;;3.17;1.43;;;4.30;99.90;;;;;;4937453;29;20204;-81
2023/11/24 02:39:57;;;;;;;4.00;1.50;;;4.30;99.90;;;;;;4953991;29;20701;-81
2023/11/24 02:42:24;;;;;;;4.87;1.70;;;4.20;99.90;;;;;;4952393;29;20230;-81
2023/11/24 02:44:52;;;;;;;6.63;1.77;;;4.10;99.90;;;;;;4954152;29;20213;-81
2023/11/24 02:47:20;;;;;;;5.30;1.80;;;4.10;99.90;;;;;;4953955;29;20228;-81
2023/11/24 02:49:48;;;;;;;4.43;1.70;;;4.10;99.90;;;;;;4936655;29;20187;-81
2023/11/24 02:52:15;;;;;;;3.40;1.60;;;4.00;99.90;;;;;;4953870;29;20210;-81
2023/11/24 02:54:42;;;;;;;3.60;1.70;;;4.00;99.90;;;;;;4956869;29;20204;-82
2023/11/24 02:57:09;;;;;;;5.37;1.93;;;4.00;99.90;;;;;;4940381;29;20683;-81
2023/11/24 02:59:37;;;;;;;7.03;2.03;;;4.00;99.90;;;;;;4940188;29;20229;-81
2023/11/24 03:02:04;;;;;;;5.20;2.00;;;3.90;99.90;;;;;;4940139;29;20295;-80
2023/11/24 03:04:35;;;;;;;7.93;1.87;;;3.90;99.90;;;;;;4957015;29;20645;-81
2023/11/24 03:07:04;;;;;;;6.57;1.60;;;3.90;99.90;;;;;;4955748;29;20223;-80
2023/11/24 03:09:32;;;;;;;4.23;1.50;;;3.90;99.90;;;;;;4955933;29;20214;-81
2023/11/24 03:11:59;;;;;;;5.80;1.77;;;3.90;99.90;;;;;;4924013;29;20320;-80
2023/11/24 03:14:27;;;;;;;6.20;1.70;;;3.90;99.90;;;;;;4956809;29;20201;-81
2023/11/24 03:16:54;;;;;;;6.23;1.60;;;3.90;99.90;;;;;;4940072;29;20233;-81
2023/11/24 03:19:22;;;;;;;6.30;1.90;;;3.80;99.90;;;;;;4956781;29;20209;-81
2023/11/24 03:21:49;;;;;;;6.97;1.70;;;3.90;99.90;;;;;;4956882;29;20209;-80
2023/11/24 03:24:16;;;;;;;5.80;1.70;;;3.90;99.90;;;;;;4957010;29;20194;-80
2023/11/24 03:26:44;;;;;;;4.37;1.83;;;4.00;99.90;;;;;;4956966;29;20262;-80
2023/11/24 03:29:11;;;;;;;7.07;1.77;;;4.00;99.90;;;;;;4939570;29;20277;-81
2023/11/24 03:31:40;;;;;;;5.87;1.80;;;4.00;99.90;;;;;;4957154;29;20346;-81
2023/11/24 03:34:07;;;;;;;8.23;1.83;;;4.00;99.90;;;;;;4939604;29;20233;-80
2023/11/24 03:36:34;;;;;;;9.47;2.00;;;4.00;99.90;;;;;;4956775;29;20206;-80
2023/11/24 03:39:01;;;;;;;6.13;1.83;;;4.00;99.90;;;;;;4939182;29;20217;-80
2023/11/24 03:41:29;;;;;;;7.43;1.73;;;4.10;99.90;;;;;;4955064;29;20268;-81
2023/11/24 03:43:56;;;;;;;8.53;2.03;;;4.20;99.90;;;;;;4939849;29;20201;-80
2023/11/24 03:46:24;;;;;;;9.60;1.87;;;4.20;99.90;;;;;;4956204;29;20190;-81
2023/11/24 03:48:52;;;;;;;6.77;1.90;;;4.20;99.90;;;;;;4954988;29;20292;-81
2023/11/24 03:51:19;;;;;;;9.23;2.00;;;4.30;99.90;;;;;;4955257;29;20234;-81
2023/11/24 03:53:46;;;;;;;12.63;1.80;;;4.30;99.90;;;;;;4956169;29;20383;-80
2023/11/24 03:56:17;;;;;;;8.87;1.80;;;4.20;99.90;;;;;;4956072;29;20755;-81
2023/11/24 03:58:45;;;;;;;6.40;1.90;;;4.20;99.90;;;;;;4956625;29;20261;-81
2023/11/24 04:01:13;;;;;;;14.23;3.03;;;4.30;99.90;;;;;;4956237;29;20208;-81
2023/11/24 04:03:47;;;;;;;6.23;1.70;;;4.30;99.90;;;;;;4956025;29;20672;-81
2023/11/24 04:06:15;;;;;;;6.53;1.50;;;4.40;99.90;;;;;;4953508;28;20267;-81
2023/11/24 04:08:43;;;;;;;6.23;1.90;;;4.30;99.90;;;;;;4955940;29;20225;-81
2023/11/24 04:11:10;;;;;;;8.53;2.00;;;4.40;99.90;;;;;;4956253;29;20220;-80
2023/11/24 04:13:38;;;;;;;6.37;1.93;;;4.40;99.90;;;;;;4956070;29;20193;-81
2023/11/24 04:16:07;;;;;;;9.03;1.60;;;4.40;99.90;;;;;;4954606;29;20210;-80
2023/11/24 04:18:34;;;;;;;5.10;1.50;;;4.40;99.90;;;;;;4955612;29;20237;-80
2023/11/24 04:21:01;;;;;;;7.77;1.60;;;4.40;99.90;;;;;;4954360;28;20206;-80
2023/11/24 04:23:29;;;;;;;10.63;1.77;;;4.40;99.90;;;;;;4954468;29;20249;-80
2023/11/24 04:25:56;;;;;;;5.67;1.53;;;4.40;99.90;;;;;;4955423;29;20777;-80
2023/11/24 04:28:23;;;;;;;5.23;1.67;;;4.40;99.90;;;;;;4937854;29;20230;-80
2023/11/24 04:30:52;;;;;;;7.23;1.87;;;4.40;99.90;;;;;;4938149;29;20220;-80
2023/11/24 04:33:20;;;;;;;6.93;1.77;;;4.30;99.90;;;;;;4955424;29;20596;-80
2023/11/24 04:35:48;;;;;;;8.33;1.90;;;4.20;99.90;;;;;;4955559;29;20197;-80
2023/11/24 04:38:16;;;;;;;8.57;1.83;;;4.20;99.90;;;;;;4953894;29;20692;-80
2023/11/24 04:40:43;;;;;;;5.83;1.70;;;4.10;99.90;;;;;;4954449;29;20220;-81
2023/11/24 04:43:10;;;;;;;4.33;1.63;;;4.10;99.90;;;;;;4955394;29;20240;-80
2023/11/24 04:45:39;;;;;;;7.23;1.80;;;4.00;99.90;;;;;;4955311;29;20225;-80
2023/11/24 04:48:07;;;;;;;7.13;1.50;;;4.00;99.90;;;;;;4955459;29;20205;-80
2023/11/24 04:50:34;;;;;;;4.53;1.40;;;3.90;99.90;;;;;;4938333;29;20205;-79
2023/11/24 04:53:02;;;;;;;5.80;1.50;;;3.90;99.90;;;;;;4955205;29;20787;-79
2023/11/24 04:55:30;;;;;;;8.80;1.63;;;3.90;99.90;;;;;;4955482;29;20222;-80
2023/11/24 04:57:57;;;;;;;8.40;1.70;;;3.90;99.90;;;;;;4955059;29;20718;-80
2023/11/24 05:00:24;;;;;;;7.83;1.60;;;3.90;99.90;;;;;;4955301;29;20273;-80
2023/11/24 05:02:51;;;;;;;7.17;1.50;;;3.80;99.90;;;;;;4955093;29;20226;-80
2023/11/24 05:05:19;;;;;;;5.77;1.40;;;3.80;99.90;;;;;;4937612;29;20202;-80
2023/11/24 05:07:46;;;;;;;6.43;1.47;;;3.70;99.90;;;;;;4954538;29;20297;-80
2023/11/24 05:10:13;;;;;;;6.10;1.90;;;3.70;99.90;;;;;;4953498;29;20226;-80
2023/11/24 05:12:41;;;;;;;5.73;1.70;;;3.70;99.90;;;;;;4954856;29;20206;-80
2023/11/24 05:15:09;;;;;;;5.43;1.53;;;3.70;99.90;;;;;;4954764;29;20275;-80
2023/11/24 05:17:38;;;;;;;5.83;1.30;;;3.70;99.90;;;;;;4954500;28;20272;-80
2023/11/24 05:20:06;;;;;;;7.27;1.63;;;3.70;99.90;;;;;;4952998;29;20222;-80
2023/11/24 05:22:33;;;;;;;6.07;1.30;;;3.70;99.90;;;;;;4954738;29;20199;-80
2023/11/24 05:25:01;;;;;;;3.90;1.37;;;3.60;99.90;;;;;;4954650;29;20254;-80
2023/11/24 05:27:28;;;;;;;6.50;1.40;;;3.70;99.90;;;;;;4953522;29;20297;-80
2023/11/24 05:29:55;;;;;;;7.53;1.40;;;3.70;99.90;;;;;;4954645;29;20198;-79
2023/11/24 05:32:23;;;;;;;4.47;1.43;;;3.70;99.90;;;;;;4953019;29;20201;-80
2023/11/24 05:34:53;;;;;;;4.80;1.47;;;3.70;99.90;;;;;;4937468;29;20452;-81
2023/11/24 05:37:21;;;;;;;5.00;1.30;;;3.70;99.90;;;;;;4953475;29;20190;-81
2023/11/24 05:39:48;;;;;;;7.20;1.67;;;3.70;99.90;;;;;;4937139;29;20677;-81
2023/11/24 05:42:16;;;;;;;5.87;1.50;;;3.70;99.90;;;;;;4954225;29;20217;-80
2023/11/24 05:44:43;;;;;;;4.50;1.43;;;3.60;99.90;;;;;;4954135;29;20289;-81
2023/11/24 05:47:10;;;;;;;10.27;1.73;;;3.60;99.90;;;;;;4937096;29;20349;-80
2023/11/24 05:49:40;;;;;;;6.33;1.60;;;3.70;99.90;;;;;;4954354;29;20662;-81
2023/11/24 05:52:14;;;;;;;7.37;1.90;;;3.70;99.90;;;;;;4954302;29;20193;-80
2023/11/24 05:54:41;;;;;;;9.47;1.90;;;3.70;99.90;;;;;;4954448;29;20236;-80
2023/11/24 05:57:09;;;;;;;11.17;2.70;;;3.70;99.90;;;;;;4954049;29;20647;-81
2023/11/24 05:59:36;;;;;;;6.27;2.20;;;3.70;99.90;;;;;;4953111;29;20224;-83
2023/11/24 06:02:03;;;;;;;7.50;2.50;;;3.70;99.90;;;;;;4954427;29;20202;-82
2023/11/24 06:04:31;;;;;;;9.53;2.20;;;3.80;99.90;;;;;;4953012;29;20193;-84
2023/11/24 06:06:58;;;;;;;12.33;2.10;;;3.70;99.90;;;;;;4953976;29;20201;-80
2023/11/24 06:09:25;;;;;;;8.40;1.97;;;3.70;99.90;;;;;;4954239;29;20224;-79
2023/11/24 06:11:52;;;;;;;8.07;2.00;;;3.70;99.90;;;;;;4953037;29;20325;-81
2023/11/24 06:14:19;;;;;;;8.43;1.80;;;3.70;99.90;;;;;;4954342;29;20269;-81
2023/11/24 06:16:46;;;;;;;11.97;2.17;;;3.70;99.90;;;;;;4954663;29;20205;-80
2023/11/24 06:19:13;;;;;;;8.47;2.00;;;3.60;99.90;;;;;;4954335;29;20239;-81
2023/11/24 06:21:40;;;;;;;9.30;1.93;;;3.60;99.90;;;;;;4954260;29;20290;-80
2023/11/24 06:24:08;;;;;;;5.73;1.90;;;3.60;99.90;;;;;;4953988;29;20245;-80
2023/11/24 06:26:37;;;;;;;7.87;2.20;;;3.60;99.90;;;;;;4954025;29;20317;-81
2023/11/24 06:29:05;;;;;;;6.00;1.70;;;3.60;99.90;;;;;;4922468;29;20209;-80
2023/11/24 06:31:32;;;;;;;8.10;1.90;;;3.60;99.90;;;;;;4956541;29;20246;-80
2023/11/24 06:33:59;;;;;;;7.70;1.90;;;3.60;99.90;;;;;;4924258;29;20300;-80
2023/11/24 06:36:26;;;;;;;7.73;1.80;;;3.60;99.90;;;;;;4957721;29;20213;-80
2023/11/24 06:38:54;;;;;;;5.83;1.77;;;3.60;99.90;;;;;;4957164;29;20711;-80
2023/11/24 06:41:21;;;;;;;5.90;1.77;;;3.70;99.90;;;;;;4957693;29;20220;-80
2023/11/24 06:43:48;;;;;;;7.57;1.77;;;3.70;99.90;;;;;;4957451;29;20617;-81
2023/11/24 06:46:15;;;;;;;7.30;2.63;;;3.70;99.90;;;;;;4957250;29;20215;-80
2023/11/24 06:48:42;;;;;;;10.50;1.80;;;3.70;99.90;;;;;;4924466;29;20308;-83
2023/11/24 06:51:10;;;;;;;8.73;1.90;;;3.70;99.90;;;;;;4955922;29;20205;-80
2023/11/24 06:53:38;;;;;;;5.13;1.83;;;3.70;99.90;;;;;;4957603;29;20209;-86
2023/11/24 06:56:06;;;;;;;7.20;2.07;;;3.70;99.90;;;;;;4939698;29;20214;-81
2023/11/24 06:58:33;;;;;;;7.90;2.17;;;3.70;99.90;;;;;;4955743;29;20226;-81
2023/11/24 07:01:00;;;;;;;8.43;1.80;;;3.70;99.90;;;;;;4957199;29;20315;-77
2023/11/24 07:03:28;;;;;;;6.03;2.00;;;3.70;99.90;;;;;;4957321;29;20198;-82
2023/11/24 07:05:56;;;;;;;8.80;2.00;;;3.60;99.90;;;;;;4939844;29;20721;-85
2023/11/24 07:08:23;;;;;;;11.60;2.20;;;3.70;99.90;;;;;;4956816;29;20252;-85
2023/11/24 07:10:50;;;;;;;7.67;2.13;;;3.70;99.90;;;;;;4940121;29;20229;-88
2023/11/24 07:13:17;;;;;;;7.20;1.90;;;3.60;99.90;;;;;;4939830;29;20197;-89
2023/11/24 07:15:45;;;;;;;14.03;2.17;;;3.60;99.90;;;;;;4957275;29;20284;-89
2023/11/24 07:18:14;;;;;;;10.17;2.10;;;3.70;99.90;;;;;;4955663;29;20721;-90
2023/11/24 07:20:41;;;;;;;10.93;1.93;;;3.70;99.90;;;;;;4939385;29;20702;-89
2023/11/24 07:23:11;;;;;;;9.23;2.00;;;3.70;99.90;;;;;;4955443;29;20201;-88
2023/11/24 07:25:39;;;;;;;11.67;2.20;;;3.70;99.90;;;;;;4957466;29;20626;-88
2023/11/24 07:28:07;;;;;;;14.07;2.43;;;3.70;99.90;;;;;;4957262;29;20216;-89
2023/11/24 07:30:35;;;;;;;10.60;2.20;;;3.70;99.90;;;;;;4940062;29;20194;-92
2023/11/24 07:33:02;;;;;;;9.77;1.90;;;3.70;99.90;;;;;;4957687;29;20677;-90
2023/11/24 07:35:30;;;;;;;9.20;2.20;;;3.70;99.90;;;;;;4958172;29;20245;-88
2023/11/24 07:37:58;;;;;;;8.40;2.23;;;3.70;99.90;;;;;;4959042;28;20218;-91
2023/11/24 07:40:26;;;;;;;5.93;1.83;;;3.70;99.90;;;;;;4956697;28;20225;-90
2023/11/24 07:42:53;;;;;;;9.03;1.90;;;3.70;99.90;;;;;;4955598;29;20194;-89
2023/11/24 07:45:21;;;;;;;9.97;2.13;;;3.70;99.90;;;;;;4955884;29;20717;-89
2023/11/24 07:47:48;;;;;;;7.47;2.13;;;3.80;99.90;;;;;;4956680;29;20655;-90
2023/11/24 07:50:17;;;;;;;12.33;2.03;;;3.70;99.90;;;;;;4957128;29;20221;-89
2023/11/24 07:52:46;;;;;;;8.30;2.20;;;3.70;99.90;;;;;;4956537;29;20228;-90
2023/11/24 07:55:13;;;;;;;7.87;2.10;;;3.80;99.90;;;;;;4956646;29;20201;-88
2023/11/24 07:57:42;;;;;;;8.57;2.07;;;3.70;99.90;;;;;;4956646;29;20206;-88
2023/11/24 08:00:12;;;;;;;9.70;1.93;;;3.80;99.90;;;;;;4954826;29;20627;-89
2023/11/24 08:02:42;;;;;;;10.03;1.87;;;3.80;99.90;;;;;;4956641;29;20273;-89
2023/11/24 08:05:11;;;;;;;14.00;2.10;;;3.80;99.90;;;;;;4955268;29;20198;-90
2023/11/24 08:07:39;;;;;;;12.87;2.33;;;3.80;99.90;;;;;;4955689;29;20597;-88
2023/11/24 08:10:08;;;;;;;6.13;2.00;;;3.80;99.90;;;;;;4940969;29;20190;-88
2023/11/24 08:12:35;;;;;;;8.90;2.80;;;3.80;99.90;;;;;;4941175;29;20278;-89
2023/11/24 08:15:05;;;;;;;11.57;2.07;;;3.80;99.90;;;;;;4944743;29;20194;-88
2023/11/24 08:17:33;;;;;;;8.53;1.97;;;3.70;99.90;;;;;;4960387;29;20202;-90
2023/11/24 08:20:00;;;;;;;15.07;2.40;;;3.80;99.90;;;;;;4956443;29;20229;-90
2023/11/24 08:22:28;;;;;;;9.27;3.13;;;3.80;99.90;;;;;;4939110;29;20201;-90
2023/11/24 08:24:56;;;;;;;12.20;2.40;;;3.80;99.90;;;;;;4939186;29;20382;-91
2023/11/24 08:27:24;;;;;;;10.93;2.27;;;3.80;99.90;;;;;;4939980;29;20738;-90
2023/11/24 08:29:51;;;;;;;7.53;1.80;;;3.80;99.90;;;;;;4939951;29;20202;-89
2023/11/24 08:32:19;;;;;;;10.90;1.80;;;3.80;99.90;;;;;;4959193;29;20212;-90
2023/11/24 08:34:47;;;;;;;9.57;2.03;;;3.90;99.90;;;;;;4923246;29;20208;-90
2023/11/24 08:37:14;;;;;;;11.83;2.30;;;3.80;99.90;;;;;;4955204;29;20200;-89
2023/11/24 08:39:42;;;;;;;10.17;2.10;;;3.80;99.90;;;;;;4954385;29;20206;-90
2023/11/24 08:42:10;;;;;;;10.33;2.30;;;3.80;99.90;;;;;;4956228;29;20210;-89
2023/11/24 08:44:38;;;;;;;8.80;2.03;;;3.80;99.90;;;;;;4938425;29;20659;-89
2023/11/24 08:47:07;;;;;;;13.30;2.33;;;3.90;99.90;;;;;;4955511;29;20214;-90
2023/11/24 08:49:35;;;;;;;11.03;2.10;;;3.80;99.90;;;;;;4956180;29;20658;-88
2023/11/24 08:52:03;;;;;;;6.80;2.10;;;3.90;99.90;;;;;;4954479;28;20194;-88
2023/11/24 08:54:31;;;;;;;8.23;2.17;;;3.90;99.90;;;;;;4955067;29;20280;-88
2023/11/24 08:56:59;;;;;;;13.70;2.33;;;3.90;99.90;;;;;;4956797;29;20239;-88
2023/11/24 08:59:27;;;;;;;10.93;2.60;;;4.00;99.90;;;;;;4923872;29;20282;-88
2023/11/24 09:01:55;;;;;;;14.17;2.23;;;3.90;99.90;;;;;;4957636;29;20183;-88
2023/11/24 09:04:24;;;;;;;10.37;2.13;;;3.90;99.90;;;;;;4939705;29;20198;-89
2023/11/24 09:06:51;;;;;;;9.73;2.50;;;3.90;99.90;;;;;;4938577;29;20204;-89
2023/11/24 09:09:19;;;;;;;10.00;2.30;;;4.00;99.90;;;;;;4950935;29;20233;-89
2023/11/24 09:11:47;;;;;;;12.43;2.17;;;4.10;99.90;;;;;;4919326;29;20663;-89
2023/11/24 09:14:15;;;;;;;9.93;2.27;;;4.20;99.90;;;;;;4918742;29;20195;-88
2023/11/24 09:16:43;;;;;;;9.83;2.20;;;4.20;99.90;;;;;;4903254;29;20199;-90
2023/11/24 09:19:11;;;;;;;12.77;2.53;;;4.10;99.90;;;;;;4934507;29;20195;-89
2023/11/24 09:21:40;;;;;;;10.27;2.50;;;4.40;99.90;;;;;;4950414;29;20217;-89
2023/11/24 09:24:11;;;;;;;11.13;2.27;;;4.40;99.90;;;;;;4935560;29;20223;-90
2023/11/24 09:26:43;;;;;;;11.17;2.10;;;4.40;99.90;;;;;;4936358;29;20226;-90
2023/11/24 09:29:11;;;;;;;10.60;2.43;;;4.40;99.90;;;;;;4939591;29;20194;-90
2023/11/24 09:31:40;;;;;;;8.90;2.37;;;4.40;99.90;;;;;;4924209;29;20203;-90
2023/11/24 09:34:08;;;;;;;8.33;2.40;;;4.30;99.90;;;;;;4941426;29;20610;-90
2023/11/24 09:36:39;;;;;;;10.77;2.33;;;4.20;99.90;;;;;;4942100;29;20202;-91
2023/11/24 09:39:08;;;;;;;8.67;2.23;;;4.30;99.90;;;;;;4924615;29;20210;-89
2023/11/24 09:41:39;;;;;;;10.53;2.40;;;4.30;99.90;;;;;;4936654;29;20230;-89
2023/11/24 09:44:11;;;;;;;11.00;2.70;;;4.20;99.90;;;;;;4936965;29;20227;-89
2023/11/24 09:46:41;;;;;;;7.67;2.30;;;4.30;99.90;;;;;;4925590;29;20581;-89
2023/11/24 09:49:21;;;;;;;9.93;2.37;;;4.30;99.90;;;;;;4937098;29;20558;-89
2023/11/24 09:51:49;;;;;;;10.40;1.97;;;4.30;99.90;;;;;;4922144;29;20249;-89
2023/11/24 09:54:21;;;;;;;9.93;1.93;;;4.20;99.90;;;;;;4919010;29;20215;-89
2023/11/24 09:56:49;;;;;;;12.20;2.43;;;4.20;99.90;;;;;;4918783;29;20223;-90
2023/11/24 09:59:18;;;;;;;8.03;2.00;;;4.30;99.90;;;;;;4934480;29;20620;-89
2023/11/24 10:01:48;;;;;;;8.23;2.17;;;4.30;99.90;;;;;;4919414;29;20217;-90
2023/11/24 10:04:16;;;;;;;8.97;2.07;;;4.20;99.90;;;;;;4923762;29;20214;-90
2023/11/24 10:06:47;;;;;;;9.50;2.10;;;4.10;99.90;;;;;;4940611;29;20276;-89
2023/11/24 10:09:22;;;;;;;8.40;2.07;;;3.90;99.90;;;;;;4940065;29;20234;-89
2023/11/24 10:11:51;;;;;;;6.83;1.87;;;3.80;99.90;;;;;;4939089;29;20220;-89
2023/11/24 10:14:21;;;;;;;7.83;2.10;;;3.70;99.90;;;;;;4938789;29;20201;-90
2023/11/24 10:16:49;;;;;;;7.03;1.83;;;3.80;99.90;;;;;;4938499;29;20216;-89
2023/11/24 10:19:17;;;;;;;5.67;1.90;;;3.90;99.90;;;;;;4954455;29;20195;-90
2023/11/24 10:21:51;;;;;;;6.70;1.97;;;3.90;99.90;;;;;;4955206;29;20332;-90
2023/11/24 10:24:21;;;;;;;7.47;1.70;;;4.00;99.90;;;;;;4924310;29;20230;-89
2023/11/24 10:26:50;;;;;;;11.53;1.93;;;4.00;99.90;;;;;;4922692;29;20246;-89
2023/11/24 10:29:23;;;;;;;7.00;1.90;;;4.00;99.90;;;;;;4922906;29;20629;-89
2023/11/24 10:31:51;;;;;;;7.23;1.93;;;4.10;99.90;;;;;;4922460;29;20256;-89
2023/11/24 10:34:21;;;;;;;7.07;1.50;;;4.10;99.90;;;;;;4938705;29;20201;-89
2023/11/24 10:36:48;;;;;;;6.50;1.97;;;4.10;99.90;;;;;;4922919;29;20200;-89
2023/11/24 10:39:20;;;;;;;7.63;2.00;;;4.10;99.90;;;;;;4938626;29;20206;-89
2023/11/24 10:41:51;;;;;;;4.27;1.70;;;4.10;99.90;;;;;;4923880;29;20230;-86
2023/11/24 10:44:21;;;;;;;6.50;1.93;;;4.10;99.90;;;;;;4941365;29;20669;-90
2023/11/24 10:46:55;;;;;;;5.33;2.27;;;4.10;99.90;;;;;;4938964;29;20194;-89
2023/11/24 10:49:34;;;;;;;3.53;1.90;;;4.10;99.90;;;;;;4937707;29;20222;-88
2023/11/24 10:52:10;;;;;;;9.07;2.30;;;4.00;99.90;;;;;;4937266;29;20658;-88
2023/11/24 10:54:46;;;;;;;8.10;2.07;;;4.10;99.90;;;;;;4937232;29;20187;-90
2023/11/24 10:57:15;;;;;;;6.07;2.20;;;4.10;99.90;;;;;;4921130;29;20321;-89
2023/11/24 10:59:44;;;;;;;5.70;2.20;;;4.20;99.90;;;;;;4937439;29;20202;-91
2023/11/24 11:02:13;;;;;;;5.63;1.87;;;4.30;99.90;;;;;;4921230;29;20734;-90
2023/11/24 11:05:00;;;;;;;7.70;2.13;;;4.30;99.90;;;;;;4922149;29;20226;-90
2023/11/24 11:07:54;;;;;;;7.43;2.07;;;4.30;99.90;;;;;;4938407;29;20241;-90
2023/11/24 11:10:28;;;;;;;6.30;1.80;;;4.30;99.90;;;;;;4936962;29;20238;-90
2023/11/24 11:12:58;;;;;;;6.97;2.33;;;4.20;99.90;;;;;;4937693;29;20200;-90
2023/11/24 11:15:28;;;;;;;5.60;1.97;;;4.30;99.90;;;;;;4952888;28;20703;-90
2023/11/24 11:18:10;;;;;;;5.87;2.03;;;4.30;99.90;;;;;;4905906;29;20656;-89
2023/11/24 11:20:40;;;;;;;5.70;1.93;;;4.50;99.90;;;;;;4944306;29;20211;-90
2023/11/24 11:23:09;;;;;;;8.23;1.93;;;4.60;99.90;;;;;;4939217;29;20279;-91
2023/11/24 11:25:38;;;;;;;4.13;1.73;;;4.70;99.90;;;;;;4938609;29;20223;-90
2023/11/24 11:28:19;;;;;;;6.50;1.90;;;4.80;99.90;;;;;;4925220;29;20238;-90
2023/11/24 11:30:47;;;;;;;8.87;2.27;;;5.00;99.90;;;;;;4943752;29;20235;-90
2023/11/24 11:33:19;;;;;;;6.27;2.03;;;5.30;99.90;;;;;;4938962;29;20210;-90
2023/11/24 11:35:51;;;;;;;8.70;2.27;;;5.70;99.90;;;;;;4939089;29;20234;-91
2023/11/24 11:38:49;;;;;;;7.13;1.80;;;6.10;99.90;;;;;;4939984;29;20281;-91
2023/11/24 11:41:36;;;;;;;10.27;2.37;;;6.30;99.90;;;;;;4911134;29;20327;-91
2023/11/24 11:44:18;;;;;;;5.77;2.03;;;6.50;99.90;;;;;;4950568;29;20199;-88
2023/11/24 11:49:54;;;;;;;4.50;1.70;;;6.00;99.90;;;;;;4939316;29;20190;-90
2023/11/24 11:52:24;;;;;;;4.30;1.50;;;5.70;99.90;;;;;;4921079;29;20207;-89
2023/11/24 11:54:53;;;;;;;5.40;1.70;;;5.50;99.90;;;;;;4937782;29;20238;-89
2023/11/24 11:57:20;;;;;;;4.83;1.50;;;5.30;99.90;;;;;;4937131;29;20228;-89
2023/11/24 11:59:49;;;;;;;5.63;1.63;;;5.20;99.90;;;;;;4939069;29;20199;-89
2023/11/24 12:02:22;;;;;;;3.97;1.87;;;5.10;99.90;;;;;;4938472;29;20221;-86
2023/11/24 12:04:50;;;;;;;5.67;1.90;;;5.10;99.90;;;;;;4963949;29;20199;-88
2023/11/24 12:07:20;;;;;;;4.07;1.70;;;5.20;99.90;;;;;;4966493;29;20269;-87
2023/11/24 12:09:49;;;;;;;5.33;1.90;;;5.20;99.90;;;;;;4969584;29;20198;-87
2023/11/24 12:12:18;;;;;;;7.93;2.10;;;5.20;99.90;;;;;;4969279;29;20322;-86
2023/11/24 12:14:48;;;;;;;8.00;2.30;;;5.00;99.90;;;;;;4969067;29;20194;-89
2023/11/24 12:17:20;;;;;;;9.77;2.30;;;4.90;99.90;;;;;;4941234;29;20217;-87
2023/11/24 12:19:48;;;;;;;7.20;2.20;;;5.10;99.90;;;;;;4957363;29;20682;-86
2023/11/24 12:22:18;;;;;;;6.80;1.90;;;5.20;99.90;;;;;;4939259;29;20283;-88
2023/11/24 12:24:46;;;;;;;5.37;2.20;;;5.00;99.90;;;;;;4957363;29;20189;-88
2023/11/24 12:27:14;;;;;;;5.33;2.10;;;5.10;99.90;;;;;;4955214;28;20226;-89
2023/11/24 12:29:45;;;;;;;6.57;2.10;;;4.90;99.90;;;;;;4957253;29;20254;-89
2023/11/24 12:32:13;;;;;;;7.23;1.80;;;4.90;99.90;;;;;;4955101;29;20294;-88
2023/11/24 12:34:45;;;;;;;5.13;1.70;;;4.80;99.90;;;;;;4956023;29;20245;-89
2023/11/24 12:37:13;;;;;;;4.97;1.93;;;4.70;99.90;;;;;;4955540;29;20651;-89
2023/11/24 12:39:42;;;;;;;4.73;1.73;;;4.60;99.90;;;;;;4939964;29;20199;-88
2023/11/24 12:42:10;;;;;;;7.57;2.20;;;4.60;99.90;;;;;;4955759;29;20238;-88
2023/11/24 12:44:39;;;;;;;7.03;2.10;;;4.50;99.90;;;;;;4956948;29;20195;-88
2023/11/24 12:47:14;;;;;;;6.37;2.30;;;4.60;99.90;;;;;;4955054;29;20191;-89
2023/11/24 12:50:06;;;;;;;7.50;2.23;;;4.60;99.90;;;;;;4956772;29;20193;-89
2023/11/24 12:52:35;;;;;;;6.63;2.20;;;4.50;99.90;;;;;;4954941;29;20199;-89
2023/11/24 12:55:25;;;;;;;5.73;1.80;;;4.50;99.90;;;;;;4955541;29;20202;-89
2023/11/24 12:57:52;;;;;;;5.57;2.10;;;4.50;99.90;;;;;;4959745;29;20198;-89
2023/11/24 13:00:26;;;;;;;4.40;1.93;;;4.50;99.90;;;;;;4955571;29;20584;-90
2023/11/24 13:02:55;;;;;;;4.93;2.03;;;4.60;99.90;;;;;;4940575;29;20269;-89
2023/11/24 13:05:25;;;;;;;8.07;2.13;;;4.70;99.90;;;;;;4944599;29;20619;-88
2023/11/24 13:07:53;;;;;;;7.70;2.27;;;4.90;99.90;;;;;;4940202;29;20236;-90